Time;durP1;ratioP1;P1;durP2;ratioP2;P2;SDS_P1;SDS_P2;PMS_P1;PMS_P2;Temp;Humidity;BMP_temperature;BMP_pressure;BME280_temperature;BME280_humidity;BME280_pressure;Samples;Min_cycle;Max_cycle;Signal;HPM_P1;HPM_P2
2024/04/13 00:00:17;;;;;;;;;12.17;12.17;;;;;17.10;68.29;102703.22;2178892;26;1823329;-76
2024/04/13 00:01:31;;;;;;;;;11.33;10.67;;;;;17.12;68.51;102711.13;2187775;26;1823204;-76
2024/04/13 00:02:42;;;;;;;;;14.50;9.00;;;;;17.13;67.83;102715.53;2151423;26;2772111;-75
2024/04/13 00:03:55;;;;;;;;;14.00;13.40;;;;;17.10;67.71;102708.53;2169034;25;2798147;-76
2024/04/13 00:05:09;;;;;;;;;12.83;9.83;;;;;17.10;67.63;102712.06;2183852;26;1821459;-75
2024/04/13 00:06:23;;;;;;;;;14.67;14.50;;;;;17.09;68.09;102720.06;2187038;26;1824187;-76
2024/04/13 00:07:34;;;;;;;;;16.50;12.00;;;;;17.06;68.17;102713.03;2151774;25;2804357;-76
2024/04/13 00:08:45;;;;;;;;;14.00;12.00;;;;;17.06;68.27;102718.34;2148812;26;2784567;-76
2024/04/13 00:09:56;;;;;;;;;12.00;12.00;;;;;17.05;67.37;102711.31;2150693;26;2786709;-76
2024/04/13 00:11:11;;;;;;;;;11.71;10.29;;;;;17.03;68.42;102713.16;2186454;26;1821141;-76
2024/04/13 00:12:22;;;;;;;;;14.50;11.50;;;;;17.03;68.48;102707.84;2179960;25;2794219;-76
2024/04/13 00:13:34;;;;;;;;;16.00;13.00;;;;;17.04;68.25;102706.06;2176443;25;2799187;-76
2024/04/13 00:14:48;;;;;;;;;16.83;13.50;;;;;17.02;67.80;102707.88;2209167;26;1825320;-76
2024/04/13 00:15:59;;;;;;;;;18.00;13.50;;;;;17.02;68.14;102711.41;2153434;26;2812698;-76
2024/04/13 00:17:10;;;;;;;;;17.50;13.00;;;;;17.03;68.03;102714.94;2150268;25;2792873;-76
2024/04/13 00:18:22;;;;;;;;;18.00;17.33;;;;;17.01;67.98;102707.03;2151071;25;3562684;-75
2024/04/13 00:19:35;;;;;;;;;17.33;14.67;;;;;17.00;68.40;102705.28;2174551;26;2818971;-76
2024/04/13 00:20:47;;;;;;;;;13.00;12.00;;;;;16.97;68.17;102702.69;2176834;25;2796622;-76
2024/04/13 00:22:00;;;;;;;;;11.00;11.00;;;;;16.99;67.79;102712.34;2174826;26;2789829;-76
2024/04/13 00:23:11;;;;;;;;;12.00;10.00;;;;;16.96;68.08;102707.13;2137740;26;2786676;-76
2024/04/13 00:24:22;;;;;;;;;14.00;14.00;;;;;16.97;68.19;102713.31;2151643;25;2800139;-76
2024/04/13 00:25:35;;;;;;;;;13.20;10.40;;;;;16.95;68.49;102708.06;2169816;26;2787655;-76
2024/04/13 00:26:46;;;;;;;;;15.00;14.50;;;;;16.94;68.24;102710.78;2148915;26;2787805;-76
2024/04/13 00:27:57;;;;;;;;;12.00;11.00;;;;;16.92;68.72;102701.94;2145393;26;2783039;-76
2024/04/13 00:29:11;;;;;;;;;14.00;12.67;;;;;16.90;68.64;102701.13;2211421;25;1825286;-76
2024/04/13 00:30:23;;;;;;;;;11.00;11.00;;;;;16.87;68.28;102702.97;2151739;25;2790832;-75
2024/04/13 00:31:36;;;;;;;;;12.67;12.00;;;;;16.86;68.35;102695.94;2186166;25;1831589;-76
2024/04/13 00:32:48;;;;;;;;;15.50;12.00;;;;;16.84;68.46;102692.41;2143537;26;2790895;-76
2024/04/13 00:33:59;;;;;;;;;17.00;12.50;;;;;16.82;68.44;102690.72;2152423;26;2796040;-76
2024/04/13 00:35:10;;;;;;;;;12.00;12.00;;;;;16.83;68.38;102696.00;2136953;26;2789738;-75
2024/04/13 00:36:21;;;;;;;;;15.50;14.50;;;;;16.79;68.29;102689.00;2151571;25;2810626;-76
2024/04/13 00:37:32;;;;;;;;;15.50;12.00;;;;;16.81;68.38;102683.69;2167206;25;2799106;-76
2024/04/13 00:38:43;;;;;;;;;17.00;12.50;;;;;16.78;68.35;102684.63;2157387;25;2801181;-75
2024/04/13 00:39:54;;;;;;;;;14.00;11.00;;;;;16.74;68.30;102685.66;2153413;25;2789762;-76
2024/04/13 00:41:06;;;;;;;;;14.67;13.00;;;;;16.76;68.11;102683.81;2150562;25;2796074;-76
2024/04/13 00:42:19;;;;;;;;;16.50;15.50;;;;;16.73;68.24;102690.09;2180268;26;2810614;-76
2024/04/13 00:43:34;;;;;;;;;16.14;13.14;;;;;16.72;68.44;102698.06;2184981;26;1825319;-76
2024/04/13 00:44:45;;;;;;;;;14.00;12.50;;;;;16.70;68.54;102686.63;2176435;26;2789774;-76
2024/04/13 00:45:56;;;;;;;;;12.00;11.00;;;;;16.68;68.63;102686.69;2133591;26;2793901;-76
2024/04/13 00:47:09;;;;;;;;;15.50;12.00;;;;;16.67;68.66;102686.75;2156717;26;2789767;-76
2024/04/13 00:48:28;;;;;;;;;12.50;11.00;;;;;16.64;68.39;102683.22;2152737;26;2784538;-76
2024/04/13 00:49:41;;;;;;;;;12.00;11.50;;;;;16.65;69.14;102681.44;2156492;26;2794013;-76
2024/04/13 00:50:59;;;;;;;;;16.67;13.33;;;;;16.63;68.67;102678.84;2177809;26;3532496;-75
2024/04/13 00:52:13;;;;;;;;;15.00;12.67;;;;;16.62;68.40;102674.44;2175962;25;2794052;-76
2024/04/13 00:53:24;;;;;;;;;13.00;13.00;;;;;16.62;68.78;102679.75;2178323;26;2792943;-76
2024/04/13 00:54:37;;;;;;;;;16.50;13.00;;;;;16.59;69.14;102666.59;2171222;26;2799213;-76
2024/04/13 00:55:49;;;;;;;;;15.50;13.50;;;;;16.59;68.49;102673.66;2153009;25;2797121;-76
2024/04/13 00:57:00;;;;;;;;;15.00;13.00;;;;;16.59;69.01;102677.19;2153617;25;2794994;-76
2024/04/13 00:58:12;;;;;;;;;12.50;12.50;;;;;16.58;68.79;102677.22;2151422;25;2787668;-76
2024/04/13 00:59:25;;;;;;;;;16.33;12.33;;;;;16.58;69.17;102674.56;2149530;26;2796190;-75
2024/04/13 01:00:37;;;;;;;;;15.00;13.00;;;;;16.54;69.42;102665.84;2163964;26;2796058;-76
2024/04/13 01:01:48;;;;;;;;;10.50;10.50;;;;;16.54;68.61;102671.16;2153467;25;2781541;-75
2024/04/13 01:03:00;;;;;;;;;14.50;13.00;;;;;16.54;68.85;102674.66;2150533;25;2784579;-76
2024/04/13 01:04:14;;;;;;;;;18.40;15.80;;;;;16.50;69.15;102661.50;2172287;25;2818967;-76
2024/04/13 01:05:26;;;;;;;;;16.67;13.00;;;;;16.52;69.43;102665.84;2152614;25;3542115;-75
2024/04/13 01:06:40;;;;;;;;;11.50;10.50;;;;;16.48;68.78;102653.59;2211219;25;1834695;-76
2024/04/13 01:07:51;;;;;;;;;11.50;9.50;;;;;16.51;69.66;102660.59;2151661;26;2774186;-76
2024/04/13 01:09:03;;;;;;;;;13.00;13.00;;;;;16.50;69.24;102656.19;2154539;26;2788021;-76
2024/04/13 01:10:16;;;;;;;;;17.50;13.50;;;;;16.48;69.72;102653.59;2146004;26;2804353;-76
2024/04/13 01:11:29;;;;;;;;;16.50;14.00;;;;;16.49;69.60;102654.47;2177497;26;2798211;-76
2024/04/13 01:12:43;;;;;;;;;15.33;15.33;;;;;16.47;69.42;102648.34;2151107;26;2787731;-76
2024/04/13 01:13:54;;;;;;;;;14.00;11.00;;;;;16.47;69.90;102656.31;2171654;26;2792918;-76
2024/04/13 01:15:08;;;;;;;;;5.83;3.83;;;;;16.47;68.85;102648.34;2179467;25;2737646;-76
2024/04/13 01:16:27;;;;;;;;;20.00;19.00;;;;;16.45;69.47;102652.78;2150008;26;3573570;-76
2024/04/13 01:17:39;;;;;;;;;17.67;15.00;;;;;16.45;69.19;102655.44;2175131;25;2806480;-76
2024/04/13 01:18:52;;;;;;;;;16.33;14.33;;;;;16.45;69.49;102663.41;2169878;26;3536663;-76
2024/04/13 01:20:07;;;;;;;;;15.33;12.67;;;;;16.41;70.03;102652.03;2170980;26;2796124;-75
2024/04/13 01:21:19;;;;;;;;;14.00;14.00;;;;;16.41;69.48;102652.91;2177953;25;2794432;-76
2024/04/13 01:22:33;;;;;;;;;10.75;9.50;;;;;16.40;68.83;102655.56;2162799;26;1850319;-76
2024/04/13 01:23:45;;;;;;;;;17.33;14.67;;;;;16.39;69.54;102660.03;2174830;25;2808552;-76
2024/04/13 01:24:58;;;;;;;;;16.33;14.33;;;;;16.39;69.50;102662.69;2175584;25;3532488;-76
2024/04/13 01:26:09;;;;;;;;;18.00;15.00;;;;;16.40;69.62;102653.81;2178024;25;2797093;-76
2024/04/13 01:27:21;;;;;;;;;18.00;14.50;;;;;16.36;69.45;102654.81;2153262;25;2810657;-76
2024/04/13 01:28:34;;;;;;;;;16.33;11.00;;;;;16.37;69.45;102658.34;2152079;26;2808615;-76
2024/04/13 01:29:45;;;;;;;;;11.50;10.50;;;;;16.37;69.31;102655.69;2177473;25;2787699;-76
2024/04/13 01:30:56;;;;;;;;;15.00;12.50;;;;;16.37;69.79;102667.13;2154540;26;2805431;-76
2024/04/13 01:32:08;;;;;;;;;19.00;14.33;;;;;16.36;69.13;102660.09;2173969;25;3538754;-76
2024/04/13 01:33:19;;;;;;;;;11.00;9.00;;;;;16.35;70.03;102662.78;2165951;26;2757531;-76
2024/04/13 01:34:32;;;;;;;;;14.67;12.33;;;;;16.31;69.14;102662.00;2148763;26;2788717;-76
2024/04/13 01:35:43;;;;;;;;;15.00;14.67;;;;;16.34;69.84;102663.72;2177372;25;2788710;-76
2024/04/13 01:36:55;;;;;;;;;16.33;15.33;;;;;16.30;69.60;102666.44;2174232;26;2813743;-76
2024/04/13 01:38:06;;;;;;;;;16.00;14.50;;;;;16.29;69.41;102669.16;2173254;26;2797102;-76
2024/04/13 01:39:17;;;;;;;;;14.00;12.00;;;;;16.28;69.55;102668.28;2140265;26;2791866;-76
2024/04/13 01:40:30;;;;;;;;;14.67;13.67;;;;;16.26;69.00;102667.44;2150619;25;2799185;-76
2024/04/13 01:41:46;;;;;;;;;16.00;15.67;;;;;16.27;68.86;102677.13;2175437;26;3542970;-76
2024/04/13 01:42:57;;;;;;;;;14.00;13.50;;;;;16.23;69.82;102670.16;2167276;26;2787712;-75
2024/04/13 01:44:09;;;;;;;;;19.67;16.67;;;;;16.23;69.75;102675.47;2165358;26;3568993;-76
2024/04/13 01:45:20;;;;;;;;;12.00;12.00;;;;;16.24;69.34;102681.66;2181487;25;2795517;-76
2024/04/13 01:46:32;;;;;;;;;16.00;11.50;;;;;16.20;69.52;102671.13;2175268;26;2802301;-76
2024/04/13 01:47:44;;;;;;;;;10.50;10.50;;;;;16.21;69.54;102672.00;2141453;26;2789813;-76
2024/04/13 01:48:55;;;;;;;;;15.67;14.33;;;;;16.17;69.31;102673.84;2148526;26;2793914;-75
2024/04/13 01:50:08;;;;;;;;;14.67;14.67;;;;;16.16;70.22;102658.84;2161226;26;2815949;-75
2024/04/13 01:51:19;;;;;;;;;10.50;10.00;;;;;16.16;69.87;102663.28;2161489;26;2775840;-76
2024/04/13 01:52:30;;;;;;;;;15.00;14.00;;;;;16.16;69.61;102657.97;2166432;26;2785656;-76
2024/04/13 01:53:42;;;;;;;;;16.00;14.50;;;;;16.15;69.23;102654.44;2175741;25;2805493;-76
2024/04/13 01:54:53;;;;;;;;;18.00;15.50;;;;;16.12;69.69;102658.97;2154727;26;2826300;-75
2024/04/13 01:56:05;;;;;;;;;11.50;10.50;;;;;16.10;69.90;102653.69;2149561;25;2783481;-76
2024/04/13 01:57:18;;;;;;;;;17.80;17.00;;;;;16.08;69.54;102655.53;2170298;26;2815828;-76
2024/04/13 01:58:30;;;;;;;;;18.33;15.33;;;;;16.08;69.71;102656.41;2152870;26;2813796;-75
2024/04/13 01:59:45;;;;;;;;;14.83;13.83;;;;;16.07;70.04;102653.78;2206813;26;1837223;-76
2024/04/13 02:01:03;;;;;;;;;14.83;14.17;;;;;16.07;69.40;102665.28;2173757;26;1835664;-76
2024/04/13 02:02:15;;;;;;;;;16.33;14.33;;;;;16.02;69.81;102661.84;2149734;26;2814786;-76
2024/04/13 02:03:27;;;;;;;;;13.67;12.33;;;;;16.02;69.68;102660.97;2175527;26;3521007;-76
2024/04/13 02:04:38;;;;;;;;;17.50;16.00;;;;;16.03;69.63;102662.69;2176471;26;2803312;-76
2024/04/13 02:05:50;;;;;;;;;17.67;15.00;;;;;16.01;69.92;102668.03;2175120;25;3541878;-75
2024/04/13 02:07:01;;;;;;;;;19.00;16.50;;;;;16.00;69.28;102665.44;2179055;25;2836683;-76
2024/04/13 02:08:12;;;;;;;;;17.00;14.00;;;;;16.02;69.92;102672.44;2148619;26;2809965;-76
2024/04/13 02:09:23;;;;;;;;;17.00;15.00;;;;;16.00;70.14;102666.28;2156972;26;2802230;-76
2024/04/13 02:10:34;;;;;;;;;16.50;14.50;;;;;15.98;69.88;102668.09;2159325;25;2807435;-76
2024/04/13 02:11:49;;;;;;;;;16.29;14.14;;;;;16.00;69.44;102676.91;2186071;25;1836791;-76
2024/04/13 02:13:00;;;;;;;;;15.50;15.50;;;;;16.00;70.07;102674.25;2174022;26;2805447;-76
2024/04/13 02:14:11;;;;;;;;;16.00;15.00;;;;;15.95;70.20;102663.75;2153263;26;2785608;-76
2024/04/13 02:15:24;;;;;;;;;19.33;18.00;;;;;15.97;70.30;102669.91;2149857;26;3567904;-76
2024/04/13 02:16:35;;;;;;;;;20.00;17.00;;;;;15.95;69.71;102669.06;2180320;25;2829414;-76
2024/04/13 02:17:46;;;;;;;;;16.50;14.00;;;;;15.95;69.86;102669.06;2148812;26;2798079;-76
2024/04/13 02:18:58;;;;;;;;;18.00;16.00;;;;;15.94;69.93;102669.97;2141777;26;2824185;-75
2024/04/13 02:20:16;;;;;;;;;19.33;16.67;;;;;15.94;70.34;102664.69;2150156;26;3568949;-76
2024/04/13 02:21:27;;;;;;;;;16.50;14.00;;;;;15.93;70.25;102667.34;2167695;26;2806908;-76
2024/04/13 02:22:38;;;;;;;;;18.50;15.00;;;;;15.94;70.78;102669.09;2152619;25;2802309;-76
2024/04/13 02:23:51;;;;;;;;;16.00;16.00;;;;;15.92;70.89;102666.50;2170543;26;3532521;-76
2024/04/13 02:25:03;;;;;;;;;17.33;15.67;;;;;15.92;70.42;102677.13;2176909;25;3547079;-76
2024/04/13 02:26:15;;;;;;;;;21.33;16.67;;;;;15.89;69.90;102663.03;2175480;26;3575513;-76
2024/04/13 02:27:27;;;;;;;;;17.67;14.00;;;;;15.89;70.63;102671.00;2185702;25;2808621;-76
2024/04/13 02:28:39;;;;;;;;;17.00;16.00;;;;;15.89;70.37;102677.19;2172430;26;2819066;-76
2024/04/13 02:29:53;;;;;;;;;18.00;16.00;;;;;15.88;70.55;102674.56;2176628;25;3557491;-76
2024/04/13 02:31:04;;;;;;;;;16.00;15.00;;;;;15.87;69.99;102673.69;2180625;26;2807478;-76
2024/04/13 02:32:16;;;;;;;;;17.67;16.00;;;;;15.86;70.40;102679.91;2174455;26;3542907;-76
2024/04/13 02:33:27;;;;;;;;;15.67;13.33;;;;;15.85;71.16;102679.03;2177020;25;3517892;-76
2024/04/13 02:34:40;;;;;;;;;17.00;14.67;;;;;15.80;70.28;102672.09;2177584;25;3546013;-76
2024/04/13 02:36:04;;;;;;;;;16.00;15.00;;;;;15.83;69.99;102679.97;2174851;26;2802320;-76
2024/04/13 02:37:15;;;;;;;;;13.00;11.50;;;;;15.80;69.62;102672.09;2161665;26;2790234;-76
2024/04/13 02:38:27;;;;;;;;;19.67;16.33;;;;;15.75;70.42;102673.06;2145243;26;3546298;-76
2024/04/13 02:39:40;;;;;;;;;19.20;16.40;;;;;15.76;70.83;102676.59;2196279;26;2830463;-76
2024/04/13 02:40:59;;;;;;;;;16.33;15.67;;;;;15.75;70.41;102678.38;2137375;26;3543986;-76
2024/04/13 02:42:11;;;;;;;;;16.00;15.33;;;;;15.73;70.28;102676.66;2165813;26;3539796;-76
2024/04/13 02:43:23;;;;;;;;;16.67;16.67;;;;;15.73;70.16;102672.25;2175173;26;3556496;-76
2024/04/13 02:44:34;;;;;;;;;16.00;16.00;;;;;15.72;70.03;102666.97;2180028;26;2802294;-76
2024/04/13 02:45:45;;;;;;;;;18.50;14.50;;;;;15.72;70.40;102667.88;2178709;25;2807545;-76
2024/04/13 02:46:57;;;;;;;;;16.33;15.00;;;;;15.73;70.87;102671.34;2177505;26;2813342;-76
2024/04/13 02:48:09;;;;;;;;;17.67;17.00;;;;;15.73;70.36;102671.34;2161400;26;3556430;-76
2024/04/13 02:49:20;;;;;;;;;18.00;16.00;;;;;15.70;70.11;102661.72;2177278;26;2814897;-76
2024/04/13 02:50:31;;;;;;;;;19.00;15.50;;;;;15.69;70.65;102661.75;2152938;25;2815799;-75
2024/04/13 02:51:42;;;;;;;;;18.50;14.50;;;;;15.68;71.12;102662.69;2158505;25;2821041;-75
2024/04/13 02:52:57;;;;;;;;;18.14;15.00;;;;;15.69;71.18;102662.63;2183577;26;1837836;-76
2024/04/13 02:54:09;;;;;;;;;22.00;17.33;;;;;15.67;70.64;102656.50;2175452;26;3567893;-76
2024/04/13 02:55:20;;;;;;;;;19.00;16.00;;;;;15.67;70.79;102656.50;2177820;26;2810618;-76
2024/04/13 02:56:33;;;;;;;;;16.00;15.67;;;;;15.69;70.66;102664.41;2150094;25;2827367;-76
2024/04/13 02:57:44;;;;;;;;;19.00;16.50;;;;;15.69;71.58;102659.09;2179503;26;2827301;-76
2024/04/13 02:58:55;;;;;;;;;18.00;14.00;;;;;15.67;70.76;102653.84;2155396;26;2812655;-76
2024/04/13 03:00:08;;;;;;;;;17.00;15.67;;;;;15.68;70.90;102665.31;2137799;26;3554335;-76
2024/04/13 03:01:20;;;;;;;;;17.67;15.33;;;;;15.65;70.85;102658.31;2175116;26;3549111;-76
2024/04/13 03:02:32;;;;;;;;;16.00;15.00;;;;;15.67;70.66;102658.25;2176016;25;3541875;-75
2024/04/13 03:03:43;;;;;;;;;16.67;16.00;;;;;15.64;70.74;102661.84;2190207;25;3558537;-76
2024/04/13 03:04:54;;;;;;;;;15.50;15.50;;;;;15.67;70.58;102661.78;2178460;26;2803406;-76
2024/04/13 03:06:12;;;;;;;;;19.00;17.67;;;;;15.63;71.43;102654.84;2175031;26;3550199;-76
2024/04/13 03:07:24;;;;;;;;;17.67;16.00;;;;;15.62;70.60;102653.97;2177938;25;3548167;-76
2024/04/13 03:08:35;;;;;;;;;15.00;15.00;;;;;15.63;70.80;102662.78;2178299;25;2801267;-75
2024/04/13 03:09:49;;;;;;;;;20.00;18.00;;;;;15.63;70.90;102660.13;2179733;25;2830454;-76
2024/04/13 03:11:03;;;;;;;;;22.00;17.33;;;;;15.61;70.72;102653.97;2151067;25;3579442;-76
2024/04/13 03:12:15;;;;;;;;;19.50;13.00;;;;;15.65;70.74;102660.97;2171030;26;2816950;-76
2024/04/13 03:13:26;;;;;;;;;22.50;18.00;;;;;15.62;71.38;102653.97;2144062;25;2829375;-76
2024/04/13 03:14:37;;;;;;;;;19.50;19.00;;;;;15.62;71.39;102655.72;2177052;25;2834592;-76
2024/04/13 03:16:04;;;;;;;;;17.00;16.00;;;;;15.63;71.68;102655.69;2153568;25;3561695;-76
2024/04/13 03:17:16;;;;;;;;;20.33;17.33;;;;;15.60;70.78;102652.25;2175585;26;3567926;-76
2024/04/13 03:18:28;;;;;;;;;19.00;18.67;;;;;15.59;70.45;102646.06;2176006;25;3567864;-76
2024/04/13 03:19:40;;;;;;;;;17.67;16.67;;;;;15.59;70.63;102642.53;2178232;25;3558517;-76
2024/04/13 03:20:51;;;;;;;;;16.50;15.50;;;;;15.60;71.33;102647.81;2177755;26;2803344;-76
2024/04/13 03:22:03;;;;;;;;;17.33;16.00;;;;;15.58;71.06;102643.47;2173630;26;2834737;-76
2024/04/13 03:23:15;;;;;;;;;19.67;15.67;;;;;15.59;70.75;102639.88;2176291;25;3555396;-76
2024/04/13 03:24:26;;;;;;;;;18.00;14.00;;;;;15.58;71.87;102646.97;2179085;25;2806485;-76
2024/04/13 03:25:38;;;;;;;;;18.00;17.00;;;;;15.57;71.89;102644.34;2175362;25;3566840;-76
2024/04/13 03:26:50;;;;;;;;;20.00;16.00;;;;;15.54;70.45;102642.66;2177998;25;3543957;-76
2024/04/13 03:28:02;;;;;;;;;19.50;17.00;;;;;15.55;71.29;102640.88;2178369;25;2826263;-76
2024/04/13 03:29:14;;;;;;;;;18.00;15.50;;;;;15.55;71.38;102639.09;2155174;25;2803389;-76
2024/04/13 03:30:26;;;;;;;;;16.00;14.67;;;;;15.50;71.25;102633.91;2176942;26;2816990;-76
2024/04/13 03:31:38;;;;;;;;;20.67;18.00;;;;;15.53;71.14;102630.34;2164715;26;3571015;-76
2024/04/13 03:32:50;;;;;;;;;16.00;15.33;;;;;15.50;71.30;102633.91;2180550;25;3534583;-76
2024/04/13 03:34:03;;;;;;;;;16.50;16.00;;;;;15.48;71.55;102626.91;2190589;25;2818963;-76
2024/04/13 03:35:14;;;;;;;;;15.00;15.00;;;;;15.51;71.13;102629.47;2179435;26;2798130;-75
2024/04/13 03:36:27;;;;;;;;;20.00;17.00;;;;;15.49;71.10;102636.59;2158040;26;3570012;-76
2024/04/13 03:37:38;;;;;;;;;17.00;16.50;;;;;15.50;71.13;102633.91;2160696;26;2817937;-76
2024/04/13 03:38:49;;;;;;;;;17.00;15.00;;;;;15.45;71.89;102619.91;2139898;26;2804771;-75
2024/04/13 03:40:00;;;;;;;;;17.50;16.00;;;;;15.45;71.15;102621.69;2149333;26;2822072;-75
2024/04/13 03:41:12;;;;;;;;;18.33;16.67;;;;;15.43;71.22;102618.19;2152415;25;3563129;-75
2024/04/13 03:42:23;;;;;;;;;14.00;13.00;;;;;15.43;71.21;102620.84;2179112;25;2783591;-76
2024/04/13 03:43:38;;;;;;;;;16.00;14.00;;;;;15.47;71.45;102628.69;2178816;25;2809708;-75
2024/04/13 03:44:50;;;;;;;;;19.00;16.67;;;;;15.46;71.23;102626.09;2171903;26;3555381;-75
2024/04/13 03:46:03;;;;;;;;;14.50;12.00;;;;;15.43;71.21;102618.19;2176781;25;2787758;-75
2024/04/13 03:47:14;;;;;;;;;15.50;13.00;;;;;15.43;70.96;102619.06;2141607;26;2796495;-75
2024/04/13 03:48:25;;;;;;;;;13.00;13.00;;;;;15.38;72.02;102607.72;2175650;26;2788804;-76
2024/04/13 03:49:37;;;;;;;;;15.33;14.67;;;;;15.41;71.21;102608.50;2151990;25;2802327;-76
2024/04/13 03:50:50;;;;;;;;;15.20;13.40;;;;;15.40;70.93;102606.78;2195751;26;2786630;-76
2024/04/13 03:52:02;;;;;;;;;18.00;16.00;;;;;15.41;71.48;102602.31;2149707;26;3557523;-76
2024/04/13 03:53:14;;;;;;;;;14.00;11.00;;;;;15.43;70.84;102610.25;2177184;26;2784602;-76
2024/04/13 03:54:28;;;;;;;;;16.14;15.71;;;;;15.39;71.59;102606.78;2183433;25;1831492;-75
2024/04/13 03:55:39;;;;;;;;;12.00;11.00;;;;;15.39;71.43;102601.47;2177985;25;2786664;-76
2024/04/13 03:56:50;;;;;;;;;15.00;14.00;;;;;15.41;71.47;102607.63;2154735;25;2796041;-75
2024/04/13 03:58:02;;;;;;;;;16.00;14.33;;;;;15.40;71.24;102606.78;2150335;25;3523108;-75
2024/04/13 03:59:13;;;;;;;;;14.50;12.50;;;;;15.38;70.89;102603.25;2175301;26;2787722;-76
2024/04/13 04:00:24;;;;;;;;;16.00;15.00;;;;;15.34;71.10;102596.28;2150317;26;2816865;-75
2024/04/13 04:01:38;;;;;;;;;14.17;14.17;;;;;15.38;71.04;102602.41;2187389;25;1827371;-76
2024/04/13 04:02:49;;;;;;;;;14.00;14.00;;;;;15.38;71.34;102605.06;2150394;26;2789793;-75
2024/04/13 04:04:02;;;;;;;;;18.33;16.67;;;;;15.37;71.04;102598.00;2150489;26;3563679;-75
2024/04/13 04:05:14;;;;;;;;;17.00;13.50;;;;;15.39;71.20;102599.72;2177283;25;2806461;-76
2024/04/13 04:06:25;;;;;;;;;17.00;14.00;;;;;15.37;72.08;102600.66;2148900;26;2788174;-75
2024/04/13 04:07:36;;;;;;;;;15.00;13.00;;;;;15.36;71.20;102593.63;2144622;26;2792903;-76
2024/04/13 04:08:47;;;;;;;;;15.00;13.00;;;;;15.38;71.76;102594.47;2151096;25;2791901;-75
2024/04/13 04:10:04;;;;;;;;;15.43;13.71;;;;;15.37;71.68;102595.34;2184073;25;1829447;-76
2024/04/13 04:11:15;;;;;;;;;15.00;13.00;;;;;15.35;71.74;102594.53;2172557;25;2796071;-75
2024/04/13 04:12:27;;;;;;;;;13.00;13.00;;;;;15.38;71.06;102597.13;2150943;25;2791846;-76
2024/04/13 04:13:40;;;;;;;;;18.80;13.80;;;;;15.36;71.82;102593.63;2172379;26;2821411;-75
2024/04/13 04:14:51;;;;;;;;;18.00;17.00;;;;;15.36;72.08;102599.78;2151328;25;2814769;-76
2024/04/13 04:16:03;;;;;;;;;15.33;13.33;;;;;15.36;71.33;102599.78;2150410;26;2802257;-75
2024/04/13 04:17:14;;;;;;;;;19.00;15.00;;;;;15.36;71.49;102601.59;2169788;26;2808567;-76
2024/04/13 04:18:28;;;;;;;;;14.43;13.14;;;;;15.33;71.61;102593.69;2170752;26;1827392;-76
2024/04/13 04:19:39;;;;;;;;;16.00;13.00;;;;;15.33;71.94;102594.56;2176322;26;2801252;-76
2024/04/13 04:20:51;;;;;;;;;19.00;15.33;;;;;15.35;71.96;102597.19;2150601;25;3543868;-75
2024/04/13 04:22:06;;;;;;;;;12.00;10.57;;;;;15.33;72.39;102593.69;2211355;26;1827390;-76
2024/04/13 04:23:17;;;;;;;;;14.00;13.00;;;;;15.36;71.33;102594.47;2175358;25;2786684;-75
2024/04/13 04:24:28;;;;;;;;;11.00;11.00;;;;;15.36;71.46;102597.13;2152495;25;2779421;-76
2024/04/13 04:25:44;;;;;;;;;15.71;13.29;;;;;15.36;71.54;102598.94;2198502;26;1827402;-76
2024/04/13 04:26:55;;;;;;;;;11.50;10.00;;;;;15.33;71.22;102589.28;2165157;26;2784599;-76
2024/04/13 04:28:11;;;;;;;;;15.00;13.29;;;;;15.35;71.19;102591.88;2196326;26;1833640;-75
2024/04/13 04:29:25;;;;;;;;;12.50;12.50;;;;;15.36;71.03;102601.59;2196613;26;1829415;-75
2024/04/13 04:30:36;;;;;;;;;16.00;14.50;;;;;15.35;71.62;102598.06;2151573;26;2790851;-76
2024/04/13 04:31:49;;;;;;;;;17.20;14.80;;;;;15.35;71.37;102586.56;2167743;25;2816864;-76
2024/04/13 04:33:04;;;;;;;;;13.86;13.57;;;;;15.34;71.58;102591.00;2185814;25;1829942;-76
2024/04/13 04:34:15;;;;;;;;;10.50;10.50;;;;;15.33;71.40;102594.56;2175537;26;2782978;-75
2024/04/13 04:35:27;;;;;;;;;15.67;14.67;;;;;15.29;71.06;102588.47;2141260;26;3536699;-75
2024/04/13 04:36:39;;;;;;;;;17.00;15.00;;;;;15.32;71.54;102591.94;2175094;26;2830413;-76
2024/04/13 04:37:51;;;;;;;;;16.33;14.67;;;;;15.29;71.19;102585.81;2152397;26;2802367;-76
2024/04/13 04:39:05;;;;;;;;;12.83;11.17;;;;;15.30;72.37;102592.88;2210639;25;1822208;-76
2024/04/13 04:40:20;;;;;;;;;14.67;14.67;;;;;15.32;71.56;102598.13;2178240;26;1839884;-75
2024/04/13 04:41:35;;;;;;;;;21.86;18.14;;;;;15.31;71.88;102596.38;2172966;26;1837798;-76
2024/04/13 04:42:46;;;;;;;;;16.00;15.50;;;;;15.29;71.56;102588.47;2164729;26;2801300;-76
2024/04/13 04:43:58;;;;;;;;;18.67;16.00;;;;;15.27;71.39;102590.28;2174907;26;3559628;-75
2024/04/13 04:45:09;;;;;;;;;11.00;10.00;;;;;15.28;71.89;102589.34;2175779;25;2785673;-76
2024/04/13 04:46:21;;;;;;;;;22.00;16.67;;;;;15.30;71.25;102592.00;2144733;26;3568883;-75
2024/04/13 04:47:36;;;;;;;;;16.00;15.29;;;;;15.28;71.55;102601.75;2210655;26;1823192;-76
2024/04/13 04:48:49;;;;;;;;;15.00;13.00;;;;;15.28;71.37;102596.47;2176177;26;2802326;-75
2024/04/13 04:50:06;;;;;;;;;17.00;15.00;;;;;15.30;71.69;102594.63;2186777;25;1827333;-76
2024/04/13 04:51:18;;;;;;;;;17.33;15.33;;;;;15.26;71.88;102598.28;2152316;25;2811672;-75
2024/04/13 04:52:30;;;;;;;;;12.33;12.33;;;;;15.28;71.60;102599.94;2176533;25;2793983;-75
2024/04/13 04:53:41;;;;;;;;;18.00;16.50;;;;;15.28;71.50;102599.94;2175263;26;2812698;-76
2024/04/13 04:54:55;;;;;;;;;12.50;10.00;;;;;15.26;71.47;102592.97;2151200;26;2787707;-75
2024/04/13 04:56:09;;;;;;;;;17.17;11.33;;;;;15.27;71.59;102597.34;2185991;25;1828362;-75
2024/04/13 04:57:20;;;;;;;;;14.00;11.50;;;;;15.24;72.30;102594.75;2151543;25;2791873;-75
2024/04/13 04:58:33;;;;;;;;;14.20;12.80;;;;;15.26;71.80;102585.88;2167806;26;2781458;-76
2024/04/13 04:59:47;;;;;;;;;14.83;14.67;;;;;15.25;71.67;102589.44;2184592;25;1818997;-76
2024/04/13 05:01:01;;;;;;;;;15.17;14.33;;;;;15.25;71.68;102585.94;2177820;26;1831568;-76
2024/04/13 05:02:13;;;;;;;;;16.67;14.00;;;;;15.22;72.36;102588.63;2140239;26;2824254;-76
2024/04/13 05:03:25;;;;;;;;;15.00;13.00;;;;;15.22;72.00;102586.88;2177758;25;2787719;-76
2024/04/13 05:04:36;;;;;;;;;15.00;13.00;;;;;15.24;71.95;102586.81;2152342;26;2788791;-75
2024/04/13 05:05:48;;;;;;;;;20.00;15.00;;;;;15.22;71.84;102586.88;2152142;26;2814789;-75
2024/04/13 05:06:59;;;;;;;;;15.00;13.50;;;;;15.23;70.91;102585.09;2156516;25;2793964;-76
2024/04/13 05:08:11;;;;;;;;;14.00;12.50;;;;;15.21;71.36;102587.75;2174339;26;2781469;-75
2024/04/13 05:09:22;;;;;;;;;20.33;17.67;;;;;15.23;71.77;102598.34;2157997;25;3564700;-75
2024/04/13 05:10:37;;;;;;;;;16.33;14.67;;;;;15.19;71.30;102590.44;2164949;26;2812772;-75
2024/04/13 05:11:49;;;;;;;;;17.33;15.33;;;;;15.21;71.93;102594.84;2175621;25;3558581;-75
2024/04/13 05:13:03;;;;;;;;;16.83;15.67;;;;;15.21;72.27;102598.34;2198174;26;1829479;-75
2024/04/13 05:14:19;;;;;;;;;15.33;14.67;;;;;15.18;71.50;102594.03;2138733;26;2804445;-76
2024/04/13 05:15:31;;;;;;;;;16.00;14.00;;;;;15.19;71.98;102594.88;2172057;26;2796061;-76
2024/04/13 05:16:42;;;;;;;;;18.50;15.00;;;;;15.16;71.77;102587.03;2177806;25;2823122;-76
2024/04/13 05:17:55;;;;;;;;;17.33;15.00;;;;;15.16;72.25;102589.66;2152153;25;3533573;-76
2024/04/13 05:19:07;;;;;;;;;18.33;15.00;;;;;15.18;71.33;102596.69;2176428;25;2818042;-75
2024/04/13 05:20:18;;;;;;;;;18.00;15.00;;;;;15.16;72.60;102593.16;2173667;26;2821066;-75
2024/04/13 05:21:32;;;;;;;;;9.83;9.83;;;;;15.17;72.52;102591.38;2178405;26;1821085;-76